createdAt,value
2022-12-03T00:02:23.527Z,22.65
2022-12-03T00:04:50.788Z,22.63
2022-12-03T00:07:18.036Z,21.23
2022-12-03T00:09:44.936Z,20.98
2022-12-03T00:12:12.064Z,19.98
2022-12-03T00:14:44.409Z,19.90
2022-12-03T00:17:11.670Z,20.17
2022-12-03T00:19:38.689Z,19.38
2022-12-03T00:22:05.498Z,18.77
2022-12-03T00:24:32.439Z,20.45
2022-12-03T00:26:59.477Z,19.67
2022-12-03T00:29:26.353Z,19.60
2022-12-03T00:31:53.394Z,20.27
2022-12-03T00:34:20.569Z,20.02
2022-12-03T00:36:47.462Z,19.20
2022-12-03T00:39:18.593Z,21.20
2022-12-03T00:41:45.449Z,19.30
2022-12-03T00:44:12.465Z,20.52
2022-12-03T00:46:39.519Z,20.50
2022-12-03T00:49:06.760Z,20.85
2022-12-03T00:51:33.649Z,20.27
2022-12-03T00:54:00.717Z,19.85
2022-12-03T00:56:27.679Z,19.33
2022-12-03T00:58:54.555Z,21.40
2022-12-03T01:01:21.542Z,19.65
2022-12-03T01:03:53.807Z,18.35
2022-12-03T01:06:20.675Z,19.25
2022-12-03T01:08:47.596Z,19.85
2022-12-03T01:11:32.823Z,19.08
2022-12-03T01:13:59.912Z,19.33
2022-12-03T01:16:26.749Z,20.20
2022-12-03T01:18:53.784Z,19.25
2022-12-03T01:21:20.786Z,20.23
2022-12-03T01:23:47.656Z,18.65
2022-12-03T01:26:14.630Z,19.08
2022-12-03T01:28:44.169Z,18.63
2022-12-03T01:31:29.549Z,20.35
2022-12-03T01:33:56.608Z,20.55
2022-12-03T01:36:23.453Z,19.35
2022-12-03T01:38:50.252Z,19.83
2022-12-03T01:41:18.788Z,18.73
2022-12-03T01:43:46.525Z,20.77
2022-12-03T01:46:26.334Z,19.77
2022-12-03T01:48:55.892Z,20.75
2022-12-03T01:51:23.457Z,19.20
2022-12-03T01:53:50.815Z,19.38
2022-12-03T01:56:18.891Z,19.83
2022-12-03T01:58:48.711Z,20.02
2022-12-03T02:01:19.028Z,19.13
2022-12-03T02:03:46.798Z,19.67
2022-12-03T02:06:19.354Z,18.15
2022-12-03T02:08:47.994Z,18.67
2022-12-03T02:11:35.541Z,18.60
2022-12-03T02:14:05.587Z,18.92
2022-12-03T02:16:36.264Z,18.13
2022-12-03T02:19:05.302Z,19.40
2022-12-03T02:21:47.756Z,18.80
2022-12-03T02:24:28.756Z,18.83
2022-12-03T02:26:55.566Z,18.88
2022-12-03T02:29:23.423Z,18.58
2022-12-03T02:31:50.486Z,20.02
2022-12-03T02:34:40.688Z,20.58
2022-12-03T02:37:14.909Z,19.60
2022-12-03T02:39:50.290Z,18.65
2022-12-03T02:42:37.754Z,17.77
2022-12-03T02:45:39.867Z,17.25
2022-12-03T02:48:23.930Z,17.15
2022-12-03T02:50:53.696Z,16.95
2022-12-03T02:53:27.886Z,16.30
2022-12-03T02:55:57.631Z,17.48
2022-12-03T02:58:25.688Z,16.33
2022-12-03T03:00:54.288Z,16.23
2022-12-03T03:03:22.811Z,16.13
2022-12-03T03:05:50.831Z,16.30
2022-12-03T03:08:19.120Z,15.27
2022-12-03T03:10:47.756Z,16.23
2022-12-03T03:13:16.882Z,15.45
2022-12-03T03:15:44.199Z,15.05
2022-12-03T03:18:13.646Z,18.40
2022-12-03T03:20:41.300Z,19.38
2022-12-03T03:23:11.006Z,17.88
2022-12-03T03:25:44.405Z,17.48
2022-12-03T03:28:12.603Z,16.10
2022-12-03T03:30:41.548Z,16.88
2022-12-03T03:33:09.635Z,15.70
2022-12-03T03:35:37.523Z,17.42
2022-12-03T03:38:05.427Z,15.90
2022-12-03T03:40:32.797Z,16.55
2022-12-03T03:43:00.718Z,15.27
2022-12-03T03:45:29.626Z,15.48
2022-12-03T03:47:59.458Z,16.85
2022-12-03T03:50:29.565Z,16.33
2022-12-03T03:52:57.707Z,17.40
2022-12-03T03:55:24.917Z,15.35
2022-12-03T03:57:51.940Z,16.42
2022-12-03T04:00:19.355Z,16.38
2022-12-03T04:02:46.641Z,16.30
2022-12-03T04:05:19.592Z,16.08
2022-12-03T04:07:47.334Z,15.15
2022-12-03T04:10:34.277Z,16.17
2022-12-03T04:13:01.436Z,14.75
2022-12-03T04:15:28.396Z,14.98
2022-12-03T04:18:14.289Z,14.68
2022-12-03T04:20:41.543Z,14.98
2022-12-03T04:23:08.933Z,14.18
2022-12-03T04:25:54.562Z,15.70
2022-12-03T04:28:39.977Z,14.23
2022-12-03T04:31:28.196Z,15.27
2022-12-03T04:34:13.870Z,14.63
2022-12-03T04:36:40.951Z,15.82
2022-12-03T04:39:07.775Z,15.13
2022-12-03T04:41:34.592Z,14.68
2022-12-03T04:44:20.333Z,15.27
2022-12-03T04:46:47.216Z,15.43
2022-12-03T04:49:14.073Z,15.38
2022-12-03T04:51:40.953Z,16.30
2022-12-03T04:54:08.095Z,16.30
2022-12-03T04:56:35.003Z,16.30
2022-12-03T04:59:01.985Z,16.02
2022-12-03T05:01:29.171Z,17.05
2022-12-03T05:03:56.235Z,17.13
2022-12-03T05:06:23.207Z,16.67
2022-12-03T05:08:50.075Z,16.08
2022-12-03T05:11:16.936Z,16.48
2022-12-03T05:13:43.877Z,16.48
2022-12-03T05:16:10.845Z,16.50
2022-12-03T05:18:38.053Z,17.17
2022-12-03T05:21:05.333Z,16.52
2022-12-03T05:23:32.194Z,17.63
2022-12-03T05:25:59.327Z,18.08
2022-12-03T05:28:26.456Z,17.70
2022-12-03T05:30:53.341Z,17.88
2022-12-03T05:33:20.720Z,17.27
2022-12-03T05:35:47.868Z,17.25
2022-12-03T05:38:14.899Z,17.95
2022-12-03T05:40:42.064Z,17.25
2022-12-03T05:43:09.045Z,17.50
2022-12-03T05:45:40.811Z,18.08
2022-12-03T05:48:10.614Z,17.23
2022-12-03T05:50:39.653Z,16.33
2022-12-03T05:53:07.102Z,17.35
2022-12-03T05:55:33.894Z,16.45
2022-12-03T05:58:01.140Z,16.65
2022-12-03T06:00:30.933Z,15.43
2022-12-03T06:02:58.577Z,16.90
2022-12-03T06:05:25.872Z,17.75
2022-12-03T06:07:53.197Z,17.13
2022-12-03T06:10:23.835Z,17.00
2022-12-03T06:12:51.436Z,17.23
2022-12-03T06:15:19.096Z,17.73
2022-12-03T06:17:46.345Z,17.35
2022-12-03T06:20:15.578Z,16.25
2022-12-03T06:22:45.074Z,17.55
2022-12-03T06:25:12.841Z,16.33
2022-12-03T06:27:40.003Z,17.30
2022-12-03T06:30:09.016Z,18.98
2022-12-03T06:32:36.025Z,17.10
2022-12-03T06:35:03.592Z,17.30
2022-12-03T06:37:30.467Z,15.82
2022-12-03T06:39:57.843Z,18.17
2022-12-03T06:42:24.856Z,17.92
2022-12-03T06:44:52.548Z,17.77
2022-12-03T06:47:19.715Z,17.55
2022-12-03T06:49:46.553Z,18.45
2022-12-03T06:52:13.644Z,18.27
2022-12-03T06:54:40.484Z,19.05
2022-12-03T06:57:07.433Z,18.92
2022-12-03T06:59:36.494Z,17.98
2022-12-03T07:02:04.467Z,19.35
2022-12-03T07:04:33.565Z,19.73
2022-12-03T07:07:00.597Z,19.23
2022-12-03T07:09:27.716Z,19.08
2022-12-03T07:11:54.832Z,19.67
2022-12-03T07:14:21.930Z,22.15
2022-12-03T07:16:48.816Z,20.58
2022-12-03T07:19:15.869Z,22.90
2022-12-03T07:21:43.476Z,24.83
2022-12-03T07:24:10.713Z,25.42
2022-12-03T07:26:37.662Z,24.70
2022-12-03T07:29:05.686Z,21.55
2022-12-03T07:31:32.961Z,24.92
2022-12-03T07:34:00.105Z,25.30
2022-12-03T07:36:27.002Z,25.30
2022-12-03T07:38:53.834Z,26.73
2022-12-03T07:41:21.017Z,26.95
2022-12-03T07:43:50.744Z,27.70
2022-12-03T07:46:17.717Z,25.55
2022-12-03T07:48:45.027Z,25.48
2022-12-03T07:51:15.195Z,22.33
2022-12-03T07:53:42.720Z,23.95
2022-12-03T07:56:09.955Z,20.80
2022-12-03T07:58:37.136Z,21.42
2022-12-03T08:01:04.114Z,19.52
2022-12-03T08:03:31.014Z,21.35
2022-12-03T08:05:57.841Z,20.70
2022-12-03T08:08:25.474Z,21.33
2022-12-03T08:10:52.451Z,22.38
2022-12-03T08:13:19.727Z,22.38
2022-12-03T08:15:46.993Z,23.40
2022-12-03T08:18:19.795Z,22.30
2022-12-03T08:20:49.035Z,23.85
2022-12-03T08:23:22.977Z,27.90
2022-12-03T08:25:51.978Z,28.83
2022-12-03T08:28:24.255Z,23.65
2022-12-03T08:31:12.677Z,24.13
2022-12-03T08:33:40.642Z,25.67
2022-12-03T08:36:23.666Z,27.05
2022-12-03T08:39:02.364Z,21.70
2022-12-03T08:41:48.754Z,26.48
2022-12-03T08:44:24.664Z,24.63
2022-12-03T08:47:23.765Z,22.70
2022-12-03T08:50:01.583Z,18.60
2022-12-03T08:52:33.843Z,18.65
2022-12-03T08:55:11.223Z,20.27
2022-12-03T08:57:38.059Z,15.32
2022-12-03T09:00:22.167Z,17.02
2022-12-03T09:02:52.504Z,17.50
2022-12-03T09:05:21.228Z,12.93
2022-12-03T09:07:48.281Z,10.98
2022-12-03T09:10:15.805Z,11.13
2022-12-03T09:12:42.850Z,10.95
2022-12-03T09:15:10.237Z,10.80
2022-12-03T09:17:37.588Z,10.45
2022-12-03T09:20:05.875Z,12.38
2022-12-03T09:22:32.916Z,12.82
2022-12-03T09:24:59.738Z,12.85
2022-12-03T09:27:27.044Z,11.35
2022-12-03T09:29:54.096Z,11.50
2022-12-03T09:32:21.041Z,12.05
2022-12-03T09:34:48.172Z,12.38
2022-12-03T09:37:15.028Z,12.10
2022-12-03T09:39:41.941Z,13.32
2022-12-03T09:42:09.594Z,11.95
2022-12-03T09:44:38.154Z,12.60
2022-12-03T09:47:06.025Z,11.35
2022-12-03T09:49:35.865Z,12.05
2022-12-03T09:52:05.605Z,15.30
2022-12-03T09:54:33.312Z,11.73
2022-12-03T09:57:03.537Z,12.32
2022-12-03T09:59:33.770Z,10.80
2022-12-03T10:02:01.984Z,12.57
2022-12-03T10:04:30.474Z,11.75
2022-12-03T10:06:59.805Z,11.70
2022-12-03T10:09:29.689Z,12.68
2022-12-03T10:12:00.216Z,13.40
2022-12-03T10:14:28.605Z,12.35
2022-12-03T10:16:55.980Z,11.32
2022-12-03T10:19:26.574Z,12.75
2022-12-03T10:21:53.796Z,12.05
2022-12-03T10:24:29.990Z,12.15
2022-12-03T10:26:59.804Z,12.15
2022-12-03T10:29:35.966Z,13.52
2022-12-03T10:32:07.395Z,12.02
2022-12-03T10:34:42.556Z,10.82
2022-12-03T10:37:22.737Z,11.77
2022-12-03T10:40:10.861Z,11.40
2022-12-03T10:42:40.636Z,12.80
2022-12-03T10:45:23.085Z,12.60
2022-12-03T10:48:07.590Z,13.20
2022-12-03T10:50:35.481Z,14.07
2022-12-03T10:53:02.671Z,11.70
2022-12-03T10:55:34.496Z,13.27
2022-12-03T10:58:01.446Z,13.75
2022-12-03T11:00:28.358Z,12.88
2022-12-03T11:02:57.228Z,14.15
2022-12-03T11:05:28.669Z,12.88
2022-12-03T11:07:56.627Z,13.38
2022-12-03T11:10:24.421Z,12.57
2022-12-03T11:13:28.752Z,11.25
2022-12-03T11:15:56.819Z,13.55
2022-12-03T11:18:39.302Z,12.77
2022-12-03T11:21:12.865Z,13.80
2022-12-03T11:23:45.872Z,13.13
2022-12-03T11:26:39.276Z,14.80
2022-12-03T11:29:14.909Z,14.30
2022-12-03T11:31:49.020Z,13.67
2022-12-03T11:34:20.034Z,12.65
2022-12-03T11:37:12.100Z,12.73
2022-12-03T11:39:45.392Z,13.80
2022-12-03T11:42:25.641Z,13.07
2022-12-03T11:45:04.920Z,14.82
2022-12-03T11:47:39.895Z,15.68
2022-12-03T11:50:39.102Z,15.57
2022-12-03T11:53:17.755Z,13.30
2022-12-03T11:55:49.287Z,14.75
2022-12-03T11:58:30.681Z,14.30
2022-12-03T12:00:59.969Z,14.52
2022-12-03T12:03:32.862Z,16.10
2022-12-03T12:06:07.860Z,13.80
2022-12-03T12:08:37.064Z,14.52
2022-12-03T12:11:04.678Z,13.27
2022-12-03T12:13:31.839Z,16.05
2022-12-03T12:16:00.455Z,14.20
2022-12-03T12:18:37.154Z,12.90
2022-12-03T12:23:52.024Z,14.18
2022-12-03T12:26:19.161Z,15.32
2022-12-03T12:28:46.153Z,15.15
2022-12-03T12:31:13.162Z,15.18
2022-12-03T12:33:40.793Z,16.67
2022-12-03T12:36:11.006Z,18.25
2022-12-03T12:38:41.536Z,16.10
2022-12-03T12:41:10.356Z,16.27
2022-12-03T12:43:39.963Z,17.10
2022-12-03T12:46:46.014Z,16.92
2022-12-03T12:49:01.295Z,18.48
2022-12-03T12:51:28.347Z,15.07
2022-12-03T12:53:59.874Z,17.05
2022-12-03T12:56:31.806Z,13.90
2022-12-03T12:59:20.724Z,16.77
2022-12-03T13:01:49.712Z,16.70
2022-12-03T13:04:24.523Z,17.65
2022-12-03T13:06:54.274Z,16.27
2022-12-03T13:09:27.498Z,17.05
2022-12-03T13:11:57.293Z,15.55
2022-12-03T13:14:27.413Z,16.73
2022-12-03T13:16:57.514Z,17.55
2022-12-03T13:19:43.590Z,15.23
2022-12-03T13:22:23.219Z,16.30
2022-12-03T13:24:51.955Z,14.13
2022-12-03T13:27:19.642Z,16.23
2022-12-03T13:29:58.725Z,17.42
2022-12-03T13:32:34.572Z,18.13
2022-12-03T13:35:10.506Z,18.23
2022-12-03T13:37:38.935Z,16.33
2022-12-03T13:40:36.073Z,15.52
2022-12-03T13:43:19.189Z,16.95
2022-12-03T13:45:51.635Z,16.83
2022-12-03T13:48:30.527Z,17.10
2022-12-03T13:51:02.695Z,16.48
2022-12-03T13:53:35.445Z,16.40
2022-12-03T13:56:36.549Z,17.23
2022-12-03T13:59:04.554Z,17.80
2022-12-03T14:01:31.517Z,16.15
2022-12-03T14:03:59.097Z,16.65
2022-12-03T14:06:26.546Z,16.98
2022-12-03T14:08:55.014Z,21.33
2022-12-03T14:11:40.597Z,17.83
2022-12-03T14:14:07.666Z,19.45
2022-12-03T14:16:34.598Z,19.83
2022-12-03T14:19:01.634Z,20.80
2022-12-03T14:21:28.650Z,20.83
2022-12-03T14:23:55.749Z,19.40
2022-12-03T14:26:23.549Z,19.85
2022-12-03T14:28:50.840Z,21.42
2022-12-03T14:31:18.843Z,18.15
2022-12-03T14:33:45.724Z,20.42
2022-12-03T14:36:13.508Z,20.30
2022-12-03T14:38:40.421Z,20.30
2022-12-03T14:41:28.304Z,20.77
2022-12-03T14:43:55.349Z,19.25
2022-12-03T14:46:23.013Z,21.00
2022-12-03T14:48:50.337Z,21.80
2022-12-03T14:51:17.835Z,21.20
2022-12-03T14:53:45.477Z,22.40
2022-12-03T14:56:13.873Z,21.90
2022-12-03T14:58:40.901Z,21.00
2022-12-03T15:01:08.022Z,23.65
2022-12-03T15:03:36.434Z,21.58
2022-12-03T15:06:05.533Z,20.15
2022-12-03T15:08:32.685Z,21.23
2022-12-03T15:10:59.966Z,21.23
2022-12-03T15:13:27.766Z,20.63
2022-12-03T15:15:54.815Z,18.42
2022-12-03T15:18:21.985Z,17.95
2022-12-03T15:20:50.357Z,18.10
2022-12-03T15:23:17.359Z,17.30
2022-12-03T15:25:45.485Z,17.20
2022-12-03T15:28:12.964Z,16.10
2022-12-03T15:30:40.444Z,16.05
2022-12-03T15:33:07.557Z,16.27
2022-12-03T15:35:34.904Z,16.45
2022-12-03T15:38:02.061Z,15.45
2022-12-03T15:40:29.233Z,16.17
2022-12-03T15:42:56.082Z,16.10
2022-12-03T15:45:25.355Z,15.57
2022-12-03T15:47:52.232Z,16.75
2022-12-03T15:50:19.075Z,17.08
2022-12-03T15:52:46.050Z,16.13
2022-12-03T15:55:13.433Z,16.73
2022-12-03T15:57:40.469Z,18.13
2022-12-03T16:00:10.691Z,17.15
2022-12-03T16:02:38.100Z,17.60
2022-12-03T16:05:13.030Z,16.95
2022-12-03T16:07:40.616Z,17.45
2022-12-03T16:10:11.470Z,17.75
2022-12-03T16:12:38.545Z,18.95
2022-12-03T16:15:06.720Z,17.10
2022-12-03T16:17:33.830Z,16.92
2022-12-03T16:20:00.886Z,17.27
2022-12-03T16:22:29.560Z,17.65
2022-12-03T16:24:57.584Z,17.65
2022-12-03T16:27:25.974Z,19.30
2022-12-03T16:29:54.181Z,19.67
2022-12-03T16:32:22.855Z,19.25
2022-12-03T16:34:50.992Z,20.45
2022-12-03T16:37:17.967Z,20.02
2022-12-03T16:39:47.177Z,20.05
2022-12-03T16:42:17.454Z,20.08
2022-12-03T16:45:03.287Z,19.65
2022-12-03T16:47:34.179Z,18.75
2022-12-03T16:50:04.881Z,19.98
2022-12-03T16:52:31.812Z,19.17
2022-12-03T16:55:00.045Z,19.30
2022-12-03T16:57:33.113Z,20.70
2022-12-03T17:00:01.084Z,20.42
2022-12-03T17:02:28.341Z,22.08
2022-12-03T17:04:55.785Z,19.02
2022-12-03T17:07:23.526Z,19.08
2022-12-03T17:09:50.586Z,15.48
2022-12-03T17:12:17.668Z,17.10
2022-12-03T17:14:44.569Z,16.25
2022-12-03T17:17:11.426Z,16.05
2022-12-03T17:19:38.482Z,16.23
2022-12-03T17:22:05.425Z,17.08
2022-12-03T17:24:32.431Z,14.98
2022-12-03T17:26:59.496Z,15.05
2022-12-03T17:29:26.649Z,17.60
2022-12-03T17:31:53.729Z,16.75
2022-12-03T17:34:20.641Z,17.08
2022-12-03T17:36:47.580Z,16.25
2022-12-03T17:39:14.762Z,16.33
2022-12-03T17:41:41.895Z,15.85
2022-12-03T17:44:11.361Z,12.57
2022-12-03T17:46:40.070Z,12.57
2022-12-03T17:49:07.335Z,13.05
2022-12-03T17:51:34.228Z,13.50
2022-12-03T17:54:01.636Z,12.98
2022-12-03T17:56:29.107Z,13.43
2022-12-03T17:58:57.375Z,12.60
2022-12-03T18:01:24.660Z,12.50
2022-12-03T18:03:52.011Z,12.93
2022-12-03T18:06:19.030Z,11.82
2022-12-03T18:08:46.262Z,11.85
2022-12-03T18:11:13.407Z,12.65
2022-12-03T18:13:40.597Z,12.30
2022-12-03T18:16:07.821Z,12.02
2022-12-03T18:18:35.015Z,11.43
2022-12-03T18:21:04.328Z,11.05
2022-12-03T18:23:32.411Z,11.70
2022-12-03T18:25:59.929Z,10.45
2022-12-03T18:28:26.943Z,11.27
2022-12-03T18:30:54.255Z,11.82
2022-12-03T18:33:23.729Z,12.60
2022-12-03T18:35:54.539Z,12.20
2022-12-03T18:38:23.029Z,10.63
2022-12-03T18:40:53.571Z,11.05
2022-12-03T18:43:20.611Z,11.52
2022-12-03T18:45:48.011Z,11.40
2022-12-03T18:48:18.428Z,11.27
2022-12-03T18:50:47.109Z,10.90
2022-12-03T18:53:16.541Z,12.07
2022-12-03T18:55:45.931Z,12.25
2022-12-03T18:58:13.968Z,13.07
2022-12-03T19:00:45.373Z,14.50
2022-12-03T19:03:15.057Z,13.27
2022-12-03T19:05:42.165Z,14.05
2022-12-03T19:08:15.943Z,14.13
2022-12-03T19:10:43.850Z,14.40
2022-12-03T19:13:12.209Z,17.83
2022-12-03T19:15:40.050Z,18.67
2022-12-03T19:18:08.930Z,15.07
2022-12-03T19:20:35.990Z,18.20
2022-12-03T19:23:03.230Z,17.40
2022-12-03T19:25:31.145Z,16.88
2022-12-03T19:27:58.257Z,19.38
2022-12-03T19:30:27.550Z,16.92
2022-12-03T19:32:57.003Z,16.90
2022-12-03T19:35:24.425Z,14.40
2022-12-03T19:37:51.733Z,15.70
2022-12-03T19:40:19.281Z,15.77
2022-12-03T19:42:46.184Z,17.38
2022-12-03T19:45:13.235Z,16.98
2022-12-03T19:47:40.423Z,13.68
2022-12-03T19:50:09.893Z,15.23
2022-12-03T19:52:37.305Z,13.20
2022-12-03T19:55:05.278Z,13.98
2022-12-03T19:57:32.181Z,13.38
2022-12-03T19:59:59.220Z,15.18
2022-12-03T20:02:26.557Z,13.85
2022-12-03T20:04:53.538Z,15.40
2022-12-03T20:07:20.704Z,15.23
2022-12-03T20:09:50.778Z,13.85
2022-12-03T20:12:17.696Z,14.93
2022-12-03T20:14:45.739Z,14.15
2022-12-03T20:17:12.824Z,11.95
2022-12-03T20:19:40.131Z,13.85
2022-12-03T20:22:07.332Z,15.05
2022-12-03T20:24:34.232Z,13.38
2022-12-03T20:27:02.479Z,14.77
2022-12-03T20:29:29.624Z,13.10
2022-12-03T20:31:56.732Z,12.25
2022-12-03T20:34:26.849Z,17.40
2022-12-03T20:36:53.947Z,18.65
2022-12-03T20:39:21.895Z,16.65
2022-12-03T20:41:48.870Z,15.05
2022-12-03T20:44:16.244Z,13.38
2022-12-03T20:46:43.301Z,14.48
2022-12-03T20:49:10.220Z,15.00
2022-12-03T20:51:37.364Z,15.75
2022-12-03T20:54:04.402Z,13.57
2022-12-03T20:56:34.895Z,13.18
2022-12-03T20:59:07.874Z,13.20
2022-12-03T21:01:36.532Z,12.15
2022-12-03T21:04:05.049Z,11.73
2022-12-03T21:06:34.349Z,13.07
2022-12-03T21:09:01.848Z,12.35
2022-12-03T21:11:31.743Z,12.05
2022-12-03T21:13:59.886Z,11.63
2022-12-03T21:16:59.421Z,14.18
2022-12-03T21:19:18.479Z,11.90
2022-12-03T21:21:45.481Z,12.75
2022-12-03T21:24:13.574Z,14.63
2022-12-03T21:26:41.371Z,16.35
2022-12-03T21:29:08.957Z,15.50
2022-12-03T21:31:37.687Z,13.27
2022-12-03T21:34:05.463Z,11.70
2022-12-03T21:36:33.084Z,10.07
2022-12-03T21:39:01.264Z,9.57
2022-12-03T21:41:28.386Z,10.75
2022-12-03T21:43:55.794Z,9.13
2022-12-03T21:47:11.972Z,9.95
2022-12-03T21:49:09.864Z,10.25
2022-12-03T21:51:36.765Z,9.55
2022-12-03T21:54:03.703Z,9.77
2022-12-03T21:56:32.180Z,9.43
2022-12-03T21:58:59.114Z,11.00
2022-12-03T22:01:26.275Z,10.73
2022-12-03T22:03:53.324Z,11.85
2022-12-03T22:06:20.385Z,10.82
2022-12-03T22:08:47.933Z,10.25
2022-12-03T22:11:20.352Z,10.10
2022-12-03T22:13:47.606Z,9.25
2022-12-03T22:16:17.845Z,8.85
2022-12-03T22:18:45.843Z,9.25
2022-12-03T22:21:16.266Z,9.50
2022-12-03T22:23:43.841Z,11.18
2022-12-03T22:26:17.085Z,9.13
2022-12-03T22:28:48.379Z,10.52
2022-12-03T22:33:32.667Z,9.97
2022-12-03T22:36:02.266Z,9.65
2022-12-03T22:38:30.678Z,8.65
2022-12-03T22:40:58.458Z,8.95
2022-12-03T22:43:25.746Z,8.15
2022-12-03T22:45:56.371Z,9.38
2022-12-03T22:48:24.164Z,10.65
2022-12-03T22:50:52.705Z,9.38
2022-12-03T22:53:20.624Z,9.57
2022-12-03T22:55:58.896Z,9.15
2022-12-03T22:58:27.258Z,9.70
2022-12-03T23:00:59.806Z,9.45
2022-12-03T23:03:29.651Z,9.63
2022-12-03T23:05:57.756Z,8.88
2022-12-03T23:08:24.773Z,8.38
2022-12-03T23:10:52.926Z,9.52
2022-12-03T23:13:20.768Z,9.93
2022-12-03T23:15:49.636Z,9.48
2022-12-03T23:18:17.107Z,9.13
2022-12-03T23:20:54.965Z,9.32
2022-12-03T23:23:24.826Z,9.88
2022-12-03T23:26:02.666Z,8.75
2022-12-03T23:28:32.672Z,8.70
2022-12-03T23:30:59.904Z,9.23
2022-12-03T23:33:27.999Z,7.93
2022-12-03T23:35:55.302Z,7.35
2022-12-03T23:38:22.358Z,8.35
2022-12-03T23:40:49.497Z,8.00
2022-12-03T23:43:16.842Z,7.82
2022-12-03T23:45:43.848Z,8.18
2022-12-03T23:48:11.043Z,8.20
2022-12-03T23:50:41.557Z,8.38
2022-12-03T23:53:08.585Z,8.68
2022-12-03T23:55:39.350Z,8.63
2022-12-03T23:58:06.196Z,8.68
